Tiempo atmosférico en la estación meteorológica de Cáceres, Cáceres (405 m.)



Fecha
DESCASC
Temp. máxima en grados centígrados (hora)
DESCASC
Temp. mínima en grados centígrados (hora)
DESCASC
Temp. media en grados centígrados
DESCASC
Racha de viento máxima en m/sg (hora)
DESCASC
Velocidad máxima media en intervalos de 10 minutos(hora)
DESCASC
Precipitaciones diarias en mm
DESCASC
Precipitaciones de 00:00 a 06:00 en mm
DESCASC
Precipitaciones de 06:00 a 12:00 en mm
DESCASC
Precipitaciones de 12:00 a 18:00 en mm
DESCASC
Precipitaciones de 18:00 a 24:00 en mm
DESCASC
11-12-2019 12.7 (15:50) 4.7 (01:00) 8.7 11.11 (15:50) 6.39 (15:30) 0.4 0 0.4 0 0
10-12-2019 11.1 (15:00) 3.8 (03:30) 7.5 3.89 (10:10) 2.22 (12:00) 0 0 0 0 0
09-12-2019 12.2 (15:50) 5.9 (09:10) 9 4.44 (03:00) 2.78 (02:40) 0 0 0 0 0
08-12-2019 13 (15:00) 4.8 (00:00) 8.9 7.22 (23:50) 5 (23:40) 2 0 0 2 0
07-12-2019 14.3 (15:30) 4 (00:00) 9.2 3.33 (15:40) 2.22 (19:50) 0 0 0 0 0
06-12-2019 15.5 (15:30) 5.6 (00:00) 10.5 6.39 (14:00) 4.17 (12:00) 0 0 0 0 0
05-12-2019 15 (14:30) 4.9 (00:00) 10 10.28 (17:20) 5.28 (13:50) 0 0 0 0 0
04-12-2019 13.9 (15:20) 4 (00:00) 8.9 7.5 (15:20) 4.44 (15:30) 0 0 0 0 0
03-12-2019 13.2 (16:00) 4.6 (00:00) 8.9 7.22 (15:00) 4.72 (12:50) 0 0 0 0 0
02-12-2019 13 (15:10) 8 (00:00) 10.5 12.22 (12:00) 6.94 (12:40) 0 0 0 0 0
01-12-2019 13.3 (14:40) 8.2 (00:00) 10.8 11.11 (07:30) 6.94 (15:20) 10.2 0.8 2.8 6.2 0.4
30-11-2019 15.2 (14:00) 9.7 (00:00) 12.4 13.33 (18:20) 7.5 (12:30) 3.8 0 0 2 1.8
29-11-2019 16.2 (13:50) 13.2 (00:00) 14.7 11.67 (21:30) 6.94 (21:30) 0 0 0 0 0
28-11-2019 15.2 (14:40) 10 (00:00) 12.6 10.28 (14:00) 6.67 (11:10) 0.2 0 0.2 0 0
27-11-2019 15.4 (13:20) 10.1 (00:00) 12.8 11.11 (00:10) 6.11 (14:50) 2.8 2.8 0 0 0
26-11-2019 15.9 (14:10) 12.5 (00:00) 14.2 18.33 (15:50) 8.06 (14:20) 6.8 0 0.4 5.6 0.8
25-11-2019 16.7 (15:30) 11.7 (00:00) 14.2 16.39 (02:30) 7.5 (02:50) 4.8 3 1.8 0 0
24-11-2019 13.4 (13:20) 7 (00:00) 10.2 16.67 (23:50) 7.78 (22:50) 0 0 0 0 0
23-11-2019 13.9 (15:50) 8 (00:00) 10.9 14.44 (01:10) 8.61 (02:50) 0 0 0 0 0
22-11-2019 16.1 (14:30) 10.6 (00:00) 13.4 18.61 (10:30) 10.83 (10:30) 27.2 1.4 19.4 6.2 0.2
21-11-2019 14.2 (15:30) 8.9 (00:00) 11.5 8.33 (09:00) 5.83 (22:00) 2.8 0.2 1.6 0.8 0.2
20-11-2019 9.5 (17:40) 7.2 (00:00) 8.3 10.83 (10:20) 7.5 (10:20) 16.2 0.2 8.8 2.2 5
19-11-2019 12 (15:30) 2.6 (00:00) 7.3 5.28 (20:10) 3.61 (23:40) 0 0 0 0 0
18-11-2019 13.5 (15:40) 5.2 (00:00) 9.3 8.33 (12:20) 5.83 (12:10) 0 0 0 0 0
17-11-2019 12.7 (16:20) 6.3 (00:00) 9.5 10 (20:40) 5.83 (01:40) 16.6 0 3.2 2.2 11.2
16-11-2019 12.5 (15:00) 2.9 (00:00) 7.7 7.5 (16:20) 5 (15:30) 0 0 0 0 0
15-11-2019 11.4 (15:00) 4.7 (00:00) 8 12.5 (11:20) 7.78 (11:00) 0 0 0 0 0

Gráficas

Temp. máximas Temp. mínimas Temp. medias Precipitaciones Rachas de viento máximas Velocidades máximas media en intervalos de 10 minutos

Datos horarios

Fecha y hora oficial Temperatura (ºC) Velocidad del viento (km/h) Dirección del viento Racha (km/h) Dirección de racha Precipitación (mm) Presión (hPa) Tendencia (hPa) Humedad (%)
2019-12-14 23:00:00 11.8 9 Sur 22 Sur 0 973.3 -0.3 90
2019-12-14 22:00:00 11.9 14 Sur 25 Sudoeste 0 973.4 -0.1 90
2019-12-14 21:00:00 11.9 16 Sudoeste 28 Sudoeste 0 973.6 -0.1 88
2019-12-14 20:00:00 11.9 17 Sudoeste 28 Sudoeste 0 973.6 -0.1 87
2019-12-14 19:00:00 12.4 17 Sudoeste 24 Sudoeste 0 973.5 0.1 83
2019-12-14 18:00:00 12.7 9 Sudoeste 24 Sudoeste 0 973.7 -0.1 81
2019-12-14 17:00:00 13.3 8 Sudoeste 20 Sudoeste 0 973.7 -0.9 76
2019-12-14 16:00:00 13.5 11 Oeste 26 Sudoeste 0 973.4 -1.9 75
2019-12-14 15:00:00 13.6 18 Sudoeste 25 Oeste 0.2 973.8 -1.7 74
2019-12-14 14:00:00 12.1 10 Oeste 19 Oeste 0 974.6 -0.9 91
2019-12-14 13:00:00 11.3 16 Oeste 30 Oeste 0 975.3 0 96
2019-12-14 12:00:00 12.2 22 Sudoeste 29 Sudoeste 0 975.5 0.5 85
2019-12-14 11:00:00 11.5 20 Sudoeste 33 Oeste 0 975.5 0.6 89
2019-12-14 10:00:00 10.9 16 Sudoeste 27 Oeste 0 975.3 0.7 91
2019-12-14 09:00:00 10.7 22 Sudoeste 33 Sudoeste 0 975 0.6 93
2019-12-14 08:00:00 10.9 19 Sudoeste 33 Oeste 0 974.9 0.3 90
2019-12-14 07:00:00 11 16 Oeste 29 Oeste 0 974.6 -0.3 86
2019-12-14 06:00:00 10.9 14 Oeste 30 Sudoeste 0 974.4 -0.5 88
2019-12-14 05:00:00 10.8 18 Sudoeste 30 Oeste 0 974.6 -0.3 91
2019-12-14 04:00:00 10.8 18 Oeste 29 Sudoeste 0 974.9 -0.2 91
2019-12-14 03:00:00 10.8 14 Oeste 32 Oeste 0 974.9 -0.4 93
2019-12-14 02:00:00 11.2 19 Oeste 43 Oeste 0 974.9 -0.3 93
2019-12-14 01:00:00 11.3 25 Sudoeste 38 Sudoeste 0 975.1 -0.1 93
2019-12-14 00:00:00 11.3 23 Sudoeste 37 Sudoeste 0 975.3 0.1 94
2019-12-13 23:00:00 11.4 26 Sudoeste 40 Sudoeste 0 975.2 0.1 95
2019-12-13 22:00:00 11.5 23 Oeste 41 Oeste 0 975.2 0.4 93
2019-12-13 21:00:00 11.6 24 Sudoeste 44 Oeste 0 975.2 0.3 92
2019-12-13 20:00:00 11.9 19 Sudoeste 37 Sudoeste 0 975.1 0.3 90
2019-12-13 19:00:00 12.5 22 Oeste 39 Oeste 0 974.8 0.1 88
2019-12-13 18:00:00 13.6 21 Oeste 38 Oeste 0 974.9 0 83
2019-12-13 17:00:00 14.6 20 Oeste 36 Oeste 0 974.8 -0.4 78
2019-12-13 16:00:00 15.2 20 Oeste 42 Oeste 0 974.7 -1 78
2019-12-13 15:00:00 14.8 18 Oeste 39 Oeste 0 974.9 -1.4 77
2019-12-13 14:00:00 15.1 19 Oeste 37 Oeste 0 975.2 -0.8 74
2019-12-13 13:00:00 15.2 19 Oeste 39 Noroeste 0 975.7 0.8 74
2019-12-13 12:00:00 14.7 18 Oeste 40 Oeste 0 976.3 2.2 80
2019-12-13 11:00:00 13.5 22 Oeste 44 Oeste 0 976 2.5 88
2019-12-13 10:00:00 12.6 22 Oeste 43 Oeste 0 974.9 1.5 92
2019-12-13 09:00:00 11.9 24 Oeste 48 Oeste 0 974.1 1.1 92
2019-12-13 08:00:00 11.7 21 Oeste 51 Oeste 0 973.5 0.6 91
2019-12-13 07:00:00 11.5 23 Oeste 43 Oeste 0 973.4 0.6 90
2019-12-13 06:00:00 11.7 23 Oeste 45 Sudoeste 0 973 0.3 87
2019-12-13 05:00:00 12.1 23 Oeste 49 Oeste 0 972.9 0.1 86
2019-12-13 04:00:00 12.4 32 Sudoeste 50 Sudoeste 0 972.8 -0.1 90
2019-12-13 03:00:00 12.5 26 Oeste 47 Oeste 0 972.7 0 90
2019-12-13 02:00:00 12.9 29 Sudoeste 49 Oeste 0 972.8 0.2 90
2019-12-13 01:00:00 12.9 21 Oeste 50 Oeste 0 972.9 0.4 91
2019-12-13 00:00:00 12.9 32 Sudoeste 47 Oeste 0 972.7 -0.4 90
2019-12-12 23:00:00 12.6 27 Sudoeste 45 Sudoeste 0 972.6 -0.3 91
2019-12-12 22:00:00 12.5 26 Oeste 49 Sudoeste 0 972.5 -1 91
2019-12-12 21:00:00 11.9 29 Sudoeste 46 Sudoeste 0 973.1 -1 92
2019-12-12 20:00:00 11.4 33 Sudoeste 48 Sudoeste 0 972.9 -1.2 93
2019-12-12 19:00:00 11 24 Sudoeste 42 Sudoeste 0 973.5 -1.2 93
2019-12-12 18:00:00 10.6 30 Sudoeste 40 Oeste 0 974.1 -1.5 95
2019-12-12 17:00:00 11 25 Sudoeste 47 Sudoeste 0 974.1 -1.9 87
2019-12-12 16:00:00 11.5 22 Oeste 48 Oeste 0 974.7 -2.5 81
2019-12-12 15:00:00 11.2 18 Oeste 39 Sudoeste 0 975.6 -2.7 83
2019-12-12 14:00:00 10.7 26 Sudoeste 41 Oeste 0 976 -2.5 87
2019-12-12 13:00:00 11.2 17 Oeste 41 Sudoeste 0 977.2 -1.9 81
2019-12-12 12:00:00 10.5 19 Oeste 43 Oeste 0 978.3 -0.1 82
2019-12-12 11:00:00 9.5 24 Sudoeste 40 Oeste 0 978.5 0.2 88
2019-12-12 10:00:00 8.6 19 Oeste 40 Sudoeste 0 979.1 0.5 92
2019-12-12 09:00:00 8.2 23 Sudoeste 37 Oeste 0 978.4 -0.7 92
2019-12-12 08:00:00 7.5 21 Sudoeste 37 Oeste 0 978.3 -0.8 92
2019-12-12 07:00:00 7.5 23 Sudoeste 37 Sudoeste 0 978.6 -1.3 91
2019-12-12 06:00:00 7.5 19 Oeste 33 Sudoeste 0 979.1 -1.1 91
2019-12-12 05:00:00 7.6 18 Oeste 35 Oeste 0 979.1 -1.9 84
2019-12-12 04:00:00 7.2 21 Oeste 35 Oeste 0 979.9 -1.4 83
2019-12-12 03:00:00 7.6 19 Oeste 36 Oeste 0 980.2 -1.1 81
2019-12-12 02:00:00 7.5 18 Oeste 31 Oeste 0 981 -0.7 78
2019-12-12 01:00:00 7.2 15 Oeste 26 Oeste 0 981.3 -0.4 72
2019-12-12 00:00:00 7.7 12 Noroeste 19 Noroeste 0 981.3 -0.4 71
2019-12-11 23:00:00 8 9 Oeste 24 Noroeste 0 981.7 0 66
2019-12-11 22:00:00 7.9 17 Noroeste 27 Noroeste 0 981.7 0.3 67
2019-12-11 21:00:00 7.8 16 Noroeste 25 Noroeste 0 981.7 1.1 67
2019-12-11 20:00:00 8 13 Noroeste 22 Noroeste 0 981.7 1.4 69
2019-12-11 19:00:00 9 12 Noroeste 19 Noroeste 0 981.4 1.6 63
2019-12-11 18:00:00 9.9 13 Noroeste 37 Norte 0 980.6 0.9 58
2019-12-11 17:00:00 11.9 19 Noroeste 36 Noroeste 0 980.3 0.6 49
2019-12-11 16:00:00 12.6 15 Noroeste 40 Noroeste 0 979.8 0 53
2019-12-11 15:00:00 12 21 Noroeste 36 Noroeste 0 979.7 -0.6 67
2019-12-11 14:00:00 11.1 14 Norte 27 Noroeste 0 979.7 0 84
2019-12-11 13:00:00 9.4 14 Noroeste 22 Noroeste 0 979.8 0.8 95
2019-12-11 12:00:00 8.8 14 Noroeste 24 Noroeste 0 980.3 1.7 100
2019-12-11 11:00:00 8.9 11 Oeste 32 Sudoeste 0 979.7 1.6 98
2019-12-11 10:00:00 8.5 14 Oeste 27 Sudoeste 0.4 979 -- 98
2019-12-11 09:00:00 7.9 11 Sudoeste 22 Sudoeste 0 978.6 0.8 95
2019-12-11 08:00:00 7.5 15 Sudoeste 26 Sur 0 978.1 -0.1 94
2019-12-11 07:00:00 8.3 10 Sudoeste 21 Sudoeste 0 -- -- 91
2019-12-11 06:00:00 7.9 14 Sudoeste 22 Sudoeste 0 977.8 -1.2 96
2019-12-11 05:00:00 6.5 4 Este 10 Oeste 0 978.2 -1.2 100
2019-12-11 04:00:00 6 0 Calma 5 Sudeste 0 978.8 -1.1 100
2019-12-11 03:00:00 5.7 2 Nordeste 10 Sudeste 0 979 -1.3 100
2019-12-11 02:00:00 5.4 3 Sudoeste 7 Sudeste 0 979.4 -0.5 100
2019-12-11 01:00:00 5 0 Calma 6 Oeste 0 979.9 -0.4 100
2019-12-11 00:00:00 5.3 3 Sudoeste 7 Oeste 0 980.3 -0.4 100
2019-12-10 23:00:00 6 3 Sudoeste 5 Oeste 0 979.9 -0.9 100
2019-12-10 22:00:00 6.5 4 Sudeste 7 Sudoeste 0 980.3 -0.1 99
2019-12-10 21:00:00 7 5 Sudoeste 9 Sudoeste 0 980.7 0.3 99
2019-12-10 20:00:00 6.9 4 Sudoeste 8 Sudoeste 0 980.8 -0.1 98
2019-12-10 19:00:00 7.6 5 Sur 8 Sudoeste 0 980.4 -0.6 96
2019-12-10 18:00:00 9.7 2 Sudeste 4 Sudeste 0 980.4 -1 88
2019-12-10 17:00:00 10.6 3 Nordeste 8 Norte 0 980.9 -1.1 84
2019-12-10 16:00:00 11.1 2 Noroeste 8 Norte 0 981 -2.1 82
2019-12-10 15:00:00 11.1 4 Norte 9 Noroeste 0 981.4 -2.5 82
2019-12-10 14:00:00 10.6 2 Nordeste 10 Norte 0 982 -2.1 84
2019-12-10 13:00:00 9.3 4 Noroeste 10 Noroeste 0 983.1 -0.8 91
2019-12-10 12:00:00 8.8 8 Este 12 Este 0 983.9 0.3 93
2019-12-10 11:00:00 8 3 Este 14 Este 0 984.1 0.7 98
2019-12-10 10:00:00 7.7 6 Este 12 Este 0 983.9 0.6 100
2019-12-10 09:00:00 7.4 6 Este 12 Este 0 983.6 0.6 100
2019-12-10 08:00:00 6.9 4 Sudeste 8 Sudeste 0 983.4 -0.1 100
2019-12-10 07:00:00 6.4 5 Sur 7 Sur 0 983.3 -0.3 100
2019-12-10 06:00:00 6.5 4 Sur 10 Sudeste 0 983 -0.5 100
2019-12-10 05:00:00 6.5 4 Sur 9 Sur 0 983.5 -0.2 100
2019-12-10 04:00:00 5.1 5 Sur 7 Sudeste 0 983.6 -0.2 100
2019-12-10 03:00:00 4.1 5 Oeste 6 Oeste 0 983.5 -0.4 98
2019-12-10 02:00:00 5.5 4 Oeste 10 Sudoeste 0 983.7 -0.2 93
2019-12-10 01:00:00 6.4 5 Sudoeste 7 Sudoeste 0 983.8 -0.2 92
2019-12-10 00:00:00 7 5 Sudoeste 9 Sudoeste 0 983.9 0.1 89
2019-12-09 23:00:00 7.8 7 Sudoeste 10 Sudoeste 0 983.9 0.2 86
2019-12-09 22:00:00 8.1 4 Sudoeste 9 Sudoeste 0 984 0.9 86
2019-12-09 21:00:00 7.9 4 Sudoeste 9 Sudoeste 0 983.8 0.8 86
2019-12-09 20:00:00 8.6 4 Sudoeste 8 Sudoeste 0 983.7 0.4 90
2019-12-09 19:00:00 9.1 3 Sudoeste 7 Sudoeste 0 983.1 -0.2 93
2019-12-09 18:00:00 10.2 5 Sudoeste 7 Sudoeste 0 983 -0.6 88
2019-12-09 17:00:00 11.6 0 Calma 4 Oeste 0 983.3 -0.5 80
2019-12-09 16:00:00 11.8 3 Este 11 Norte 0 983.3 -1.1 78
2019-12-09 15:00:00 11.3 4 Norte 8 Norte 0 983.6 -1.3 82
2019-12-09 14:00:00 10.2 6 Norte 12 Norte 0 983.8 -1 88
2019-12-09 13:00:00 9.9 4 Norte 9 Sudeste 0 984.4 0.2 92
2019-12-09 12:00:00 7.9 8 Este 13 Este 0 984.9 1.6 100
2019-12-09 11:00:00 7.7 0 Calma 9 Este 0 984.8 2.3 100
2019-12-09 10:00:00 7.4 4 Este 6 Este 0 984.2 2 100
2019-12-09 09:00:00 6.1 4 Sudoeste 8 Sudoeste 0 983.3 1.7 100
2019-12-09 08:00:00 6.7 5 Sudoeste 7 Sudoeste 0 982.5 1.1 97
2019-12-09 07:00:00 8.4 4 Oeste 14 Oeste 0 982.2 0.3 95
2019-12-09 06:00:00 9.1 6 Noroeste 12 Oeste 0 981.6 -0.2 96
2019-12-09 05:00:00 9.5 8 Oeste 15 Noroeste 0 981.4 -0.1 100
2019-12-09 04:00:00 10.6 6 Oeste 14 Noroeste 0 981.9 0.6 100
2019-12-09 03:00:00 10.9 9 Noroeste 16 Noroeste 0 981.8 0.5 100
2019-12-09 02:00:00 11.5 5 Noroeste 10 Oeste 0 981.5 0.1 100
2019-12-09 01:00:00 11.5 5 Noroeste 15 Noroeste 0 981.3 0.1 100
2019-12-09 00:00:00 11.9 10 Oeste 26 Oeste 0 981.3 0.7 99
2019-12-08 23:00:00 11.8 9 Oeste 16 Oeste 0 981.4 0.6 100
2019-12-08 22:00:00 11.6 8 Oeste 21 Sudoeste 0 981.2 0.9 100
2019-12-08 21:00:00 11.8 10 Sudoeste 21 Sudoeste 0 980.6 0.6 98
2019-12-08 20:00:00 11.3 13 Sudoeste 22 Sudoeste 0 980.8 1 96
2019-12-08 19:00:00 11.4 8 Sudoeste 13 Oeste 0 980.3 0.4 97
2019-12-08 18:00:00 11.3 4 Oeste 10 Sudoeste 0.2 980 0.4 96
2019-12-08 17:00:00 11.3 6 Sudoeste 12 Oeste 1.8 979.8 0 94
2019-12-08 16:00:00 12.3 6 Oeste 17 Sudoeste 0 979.9 -0.4 88
2019-12-08 15:00:00 12.8 9 Oeste 16 Oeste 0 979.6 -0.9 79
2019-12-08 14:00:00 12.1 6 Oeste 14 Sudoeste 0 979.8 -0.7 81
2019-12-08 13:00:00 11 5 Norte 10 Norte 0 980.3 -0.1 90
2019-12-08 12:00:00 9.9 4 Norte 7 Norte 0 980.5 0.5 93
2019-12-08 11:00:00 7.9 5 Este 9 Sudeste 0 980.5 0.7 98
2019-12-08 10:00:00 7.1 0 Calma 4 Nordeste 0 980.4 1.4 98
2019-12-08 09:00:00 5.2 0 Calma 6 Noroeste 0 980 0.9 100
2019-12-08 08:00:00 5.2 5 Noroeste 8 Noroeste 0 979.8 0.6 99
2019-12-08 07:00:00 5.9 0 Calma 5 Sudeste 0 979 -0.5 100
2019-12-08 06:00:00 6.1 0 Calma 5 Sudoeste 0 979.1 -0.5 99
2019-12-08 05:00:00 5.9 2 Sur 3 Sur 0 979.2 -0.3 99
2019-12-08 04:00:00 6 0 Calma 6 Sudeste 0 979.5 -0.2 99
2019-12-08 03:00:00 5.7 4 Oeste 9 Oeste 0 979.6 -0.4 97
2019-12-08 02:00:00 6.6 6 Oeste 9 Oeste 0 979.5 -0.1 96
2019-12-08 01:00:00 7.5 4 Sudoeste 7 Sudoeste 0 979.7 0.4 93
2019-12-08 00:00:00 7.6 5 Sudoeste 8 Sudoeste 0 980 1 94
2019-12-07 23:00:00 8 6 Sudoeste 9 Sudoeste 0 979.6 0.9 94
2019-12-07 22:00:00 8.2 6 Sudoeste 10 Sudoeste 0 979.3 1 94
2019-12-07 21:00:00 8.2 6 Sudoeste 9 Sudoeste 0 979 1.2 95
2019-12-07 20:00:00 8.5 6 Sudoeste 10 Sudoeste 0 978.7 1.2 91
2019-12-07 19:00:00 9.2 7 Sudoeste 10 Sudoeste 0 978.3 1 89
2019-12-07 18:00:00 11.1 6 Sudoeste 8 Sudoeste 0 977.8 0.5 81
2019-12-07 17:00:00 14 4 Oeste 11 Noroeste 0 977.5 -0.3 67
2019-12-07 16:00:00 14.1 7 Noroeste 12 Norte 0 977.3 -1.3 65
2019-12-07 15:00:00 13.8 5 Noroeste 10 Nordeste 0 977.3 -1.9 67
2019-12-07 14:00:00 13.4 5 Nordeste 9 Nordeste 0 977.8 -1.3 70
2019-12-07 13:00:00 11.8 3 Nordeste 9 Este 0 978.6 0 77
2019-12-07 12:00:00 10.5 3 Sudeste 6 Sur 0 979.2 1.5 83
2019-12-07 11:00:00 7.8 0 Calma 7 Norte 0 979.1 1.3 93
2019-12-07 10:00:00 6.3 3 Noroeste 6 Noroeste 0 978.6 1.4 97
2019-12-07 09:00:00 4.6 3 Sur 6 Oeste 0 977.7 0.8 100
2019-12-07 08:00:00 4.3 3 Oeste 6 Oeste 0 977.8 0.8 95
2019-12-07 07:00:00 5.7 5 Sur 10 Sudeste 0 977.2 0.2 94
2019-12-07 06:00:00 6.3 8 Sudeste 10 Sudeste 0 976.9 -0.1 96
2019-12-07 05:00:00 5.6 4 Sudoeste 8 Oeste 0 977 0.2 95
2019-12-07 04:00:00 6.5 5 Sudeste 6 Sur 0 977 -0.2 93
2019-12-07 03:00:00 6.4 2 Sur 8 Sudoeste 0 977 -0.4 94
2019-12-07 02:00:00 6.7 2 Sur 8 Sudeste 0 976.8 -0.3 91
2019-12-07 01:00:00 8.3 6 Sudeste 10 Sudeste 0 977.2 0.3 86
2019-12-07 00:00:00 6.8 4 Sudoeste 7 Sudoeste 0 977.4 1.2 93
2019-12-06 23:00:00 7.6 6 Sudoeste 10 Sur 0 977.1 1.3 88
2019-12-06 22:00:00 7.1 3 Oeste 6 Sudeste 0 976.9 1.5 87
2019-12-06 21:00:00 8.5 4 Sudeste 6 Sudeste 0 976.2 1.2 84
2019-12-06 20:00:00 9.8 3 Sudeste 7 Este 0 975.8 0.9 79
2019-12-06 19:00:00 10.9 3 Este 9 Nordeste 0 975.4 0.8 74
2019-12-06 18:00:00 13.1 7 Nordeste 20 Nordeste 0 975 -0.2 65
2019-12-06 17:00:00 14.8 11 Nordeste 21 Nordeste 0 974.9 -0.7 57
2019-12-06 16:00:00 15.4 11 Nordeste 19 Nordeste 0 974.6 -1.6 55
2019-12-06 15:00:00 15.4 10 Nordeste 23 Nordeste 0 975.2 -1.4 56
2019-12-06 14:00:00 15 12 Nordeste 23 Nordeste 0 975.6 -1.3 59
2019-12-06 13:00:00 14.3 10 Nordeste 20 Este 0 976.2 -0.3 64
2019-12-06 12:00:00 13.1 15 Este 22 Este 0 976.6 0.5 69
2019-12-06 11:00:00 11.3 7 Este 13 Este 0 976.9 1.4 78
2019-12-06 10:00:00 9.5 3 Este 8 Sudeste 0 976.5 1.6 85
2019-12-06 09:00:00 6.1 3 Sudoeste 7 Oeste 0 976.1 1.6 96
2019-12-06 08:00:00 7.2 5 Sudeste 9 Sur 0 975.5 1.2 91
2019-12-06 07:00:00 7.2 5 Sudeste 10 Sudeste 0 974.9 0.8 92
2019-12-06 06:00:00 7.7 6 Este 10 Este 0 974.5 0.3 91
2019-12-06 05:00:00 6.9 4 Sur 8 Sur 0 974.3 0.5 93
2019-12-06 04:00:00 8.3 3 Sur 11 Sur 0 974.1 0.2 86
2019-12-06 03:00:00 8.9 0 Calma 21 Este 0 974.2 0.5 83
2019-12-06 02:00:00 9.4 12 Sudeste 18 Sudeste 0 973.8 -0.1 82
2019-12-06 01:00:00 9.6 8 Sudeste 14 Sudeste 0 973.9 0.2 80
2019-12-06 00:00:00 10 5 Este 12 Nordeste 0 973.7 0.5 77
2019-12-05 23:00:00 10 4 Sudeste 23 Nordeste 0 973.9 1.5 76
2019-12-05 22:00:00 9 0 Calma 10 Nordeste 0 973.7 1.8 81
2019-12-05 21:00:00 8.7 4 Sudoeste 9 Sudeste 0 973.2 1.8 83
2019-12-05 20:00:00 10.3 5 Este 24 Nordeste 0 972.4 1.4 74
2019-12-05 19:00:00 10.7 4 Este 23 Este 0 971.9 1.1 73
2019-12-05 18:00:00 12.7 15 Nordeste 37 Nordeste 0 971.4 0.8 64
2019-12-05 17:00:00 13.9 17 Nordeste 31 Este 0 971 0.3 62
2019-12-05 16:00:00 14.5 19 Este 32 Nordeste 0 970.8 -0.4 56
2019-12-05 15:00:00 14.7 16 Nordeste 33 Nordeste 0 970.6 -0.9 56
2019-12-05 14:00:00 14.6 16 Este 31 Nordeste 0 970.7 -0.7 58
2019-12-05 13:00:00 13.5 16 Nordeste 28 Este 0 971.2 0.5 61
2019-12-05 12:00:00 11.6 14 Norte 22 Norte 0 971.5 1.7 80
2019-12-05 11:00:00 9.6 9 Norte 14 Nordeste 0 971.4 2.3 82
2019-12-05 10:00:00 7.6 4 Oeste 8 Norte 0 970.7 2.1 88
2019-12-05 09:00:00 5 5 Oeste 8 Oeste 0 969.8 1.8 96
2019-12-05 08:00:00 5.3 4 Sudoeste 7 Sudoeste 0 969.1 1.6 97
2019-12-05 07:00:00 5.4 5 Sudoeste 7 Oeste 0 968.6 1.1 94
2019-12-05 06:00:00 6.1 6 Oeste 9 Oeste 0 968 0.9 91
2019-12-05 05:00:00 6.5 8 Oeste 10 Oeste 0 967.5 0.8 91
2019-12-05 04:00:00 6.5 6 Sudoeste 9 Oeste 0 967.5 0.6 90
2019-12-05 03:00:00 7.1 5 Sudoeste 10 Oeste 0 967.1 0.6 90
2019-12-05 02:00:00 6.5 8 Sudoeste 11 Sudoeste 0 966.7 0.9 90
2019-12-05 01:00:00 6.5 5 Sudoeste 9 Oeste 0 966.9 1.3 92
2019-12-05 00:00:00 6.8 4 Sudoeste 10 Sudoeste 0 966.5 1.1 91
2019-12-04 23:00:00 7.6 6 Oeste 8 Oeste 0 965.8 0.8 89
2019-12-04 22:00:00 8.6 5 Sudoeste 8 Sudoeste 0 965.6 1.5 91
2019-12-04 21:00:00 8.9 4 Sudoeste 6 Sudoeste 0 965.4 1.1 90
2019-12-04 20:00:00 9.2 2 Sudoeste 6 Sudoeste 0 965 1.4 91
2019-12-04 19:00:00 9.6 6 Sudoeste 10 Norte 0 964.1 0.8 89
2019-12-04 18:00:00 10.3 5 Nordeste 14 Norte 0 964.3 1.1 85
2019-12-04 17:00:00 11.2 8 Norte 19 Norte 0 963.6 -0.1 76
2019-12-04 16:00:00 11.7 14 Norte 27 Norte 0 963.3 -1 73
2019-12-04 15:00:00 13.3 9 Norte 17 Nordeste 0 963.2 -1.8 64
2019-12-04 14:00:00 12.9 4 Nordeste 9 Nordeste 0 963.7 -1.3 63
2019-12-04 13:00:00 11.5 4 Noroeste 10 Este 0 964.3 -0.7 73
2019-12-04 12:00:00 9.9 3 Este 9 Nordeste 0 965 0.3 79
2019-12-04 11:00:00 8.6 3 Norte 8 Norte 0 965 0.5 84
2019-12-04 10:00:00 7 2 Norte 6 Nordeste 0 965 0.5 94
2019-12-04 09:00:00 4.4 3 Oeste 4 Sudoeste 0 964.7 -0.1 100
2019-12-04 08:00:00 4.4 3 Sudoeste 8 Sudoeste 0 964.5 -0.8 100
2019-12-04 07:00:00 4.7 5 Sudoeste 7 Sudoeste 0 964.5 -1.1 97
2019-12-04 06:00:00 5.5 3 Oeste 7 Sur 0 964.8 -1.2 93
2019-12-04 05:00:00 6.4 0 Calma 4 Sudeste 0 965.3 -1.2 92
2019-12-04 04:00:00 6.7 2 Noroeste 6 Sudeste 0 965.6 -1.6 90
2019-12-04 03:00:00 7.6 5 Sudeste 8 Sudeste 0 966 -1.4 88
2019-12-04 02:00:00 7.4 2 Sudeste 5 Sudeste 0 966.5 -0.9 89
2019-12-04 01:00:00 6.7 3 Noroeste 6 Noroeste 0 967.2 -0.1 94
2019-12-04 00:00:00 6 3 Sur 9 Sur 0 967.4 0.4 91
2019-12-03 23:00:00 6.8 5 Sudoeste 7 Sudoeste 0 967.4 0.4 91
2019-12-03 22:00:00 5.5 0 Calma 9 Sudeste 0 967.3 0.8 90
2019-12-03 21:00:00 7.4 7 Sudeste 10 Sudeste 0 967 0.4 83
2019-12-03 20:00:00 7.5 4 Sudeste 6 Sudeste 0 967 0.5 85
2019-12-03 19:00:00 8.2 0 Calma 13 Nordeste 0 966.5 0.2 82
2019-12-03 18:00:00 10.6 10 Norte 15 Nordeste 0 966.6 -0.2 72
2019-12-03 17:00:00 12.5 11 Nordeste 23 Nordeste 0 966.5 -0.9 62
2019-12-03 16:00:00 13 13 Nordeste 24 Nordeste 0 966.3 -2.1 60
2019-12-03 15:00:00 12.8 15 Norte 26 Nordeste 0 966.8 -2.4 61
2019-12-03 14:00:00 12 16 Nordeste 25 Norte 0 967.4 -2 64
2019-12-03 13:00:00 11.3 15 Nordeste 24 Norte 0 968.4 -1.1 64
2019-12-03 12:00:00 10.6 12 Norte 21 Norte 0 969.2 -0.1 65
2019-12-03 11:00:00 9 8 Norte 13 Nordeste 0 969.4 0.1 73
2019-12-03 10:00:00 7.2 3 Noroeste 10 Noroeste 0 969.5 0.3 76
2019-12-03 09:00:00 5.1 5 Noroeste 10 Noroeste 0 969.3 0.2 86
2019-12-03 08:00:00 5.2 5 Noroeste 12 Oeste 0 969.3 -0.1 85
2019-12-03 07:00:00 6.2 3 Norte 13 Norte 0 969.2 -0.6 80
2019-12-03 06:00:00 5.8 5 Noroeste 9 Noroeste 0 969.1 -0.8 83
2019-12-03 05:00:00 6.7 3 Oeste 12 Nordeste 0 969.4 -0.6 78
2019-12-03 04:00:00 6.6 6 Norte 10 Nordeste 0 969.8 -0.3 79
2019-12-03 03:00:00 7 3 Oeste 15 Norte 0 969.9 -0.3 79
2019-12-03 02:00:00 6.9 4 Oeste 8 Sudeste 0 970 -0.2 79
2019-12-03 01:00:00 8.5 8 Este 20 Este 0 970.1 0.2 74
2019-12-03 00:00:00 9.2 10 Este 19 Este 0 970.2 0.4 72
2019-12-02 23:00:00 8.3 4 Sudoeste 13 Este 0 970.2 0.8 76
2019-12-02 22:00:00 10.3 10 Este 19 Nordeste 0 969.9 0.9 68
2019-12-02 21:00:00 11.2 11 Nordeste 24 Este 0 969.8 1.1 66
2019-12-02 20:00:00 10.9 6 Nordeste 21 Nordeste 0 969.4 1.3 72
2019-12-02 19:00:00 11.2 12 Este 24 Este 0 969 1.2 71
2019-12-02 18:00:00 11.5 13 Este 28 Nordeste 0 968.7 1.1 68
2019-12-02 17:00:00 12 18 Nordeste 37 Este 0 968.1 0.2 62
2019-12-02 16:00:00 12.6 19 Nordeste 38 Este 0 967.8 -0.5 61
2019-12-02 15:00:00 12.6 19 Este 41 Este 0 967.6 -0.9 61
2019-12-02 14:00:00 12.8 21 Nordeste 39 Nordeste 0 967.9 -0.3 58
2019-12-02 13:00:00 12 24 Nordeste 44 Nordeste 0 968.3 0.7 62
2019-12-02 12:00:00 11.1 21 Nordeste 44 Nordeste 0 968.5 1.6 65
2019-12-02 11:00:00 10.9 21 Este 37 Nordeste 0 968.2 2 68
2019-12-02 10:00:00 9.8 17 Este 37 Nordeste 0 967.6 1.8 75
2019-12-02 09:00:00 9.2 19 Nordeste 33 Nordeste 0 966.9 1.5 79
2019-12-02 08:00:00 8.6 16 Nordeste 34 Este 0 966.2 0.7 88
2019-12-02 07:00:00 8.4 13 Nordeste 31 Nordeste 0 965.8 0.6 88
2019-12-02 06:00:00 8.3 14 Nordeste 28 Nordeste 0 965.4 0.5 90
2019-12-02 05:00:00 8.2 12 Nordeste 26 Nordeste 0 965.5 0.3 94
2019-12-02 04:00:00 8.1 15 Nordeste 31 Nordeste 0 965.2 -0.1 95
2019-12-02 03:00:00 8.2 12 Nordeste 24 Nordeste 0 964.9 -0.2 93
2019-12-02 02:00:00 8.3 9 Nordeste 19 Nordeste 0 965.2 0 93
2019-12-02 01:00:00 8 4 Norte 11 Norte 0 965.3 0.5 100
2019-12-02 00:00:00 8.2 0 Calma 13 Norte 0 965.1 0.8 100
2019-12-01 23:00:00 8.4 6 Norte 18 Nordeste 0 965.2 1 100
2019-12-01 22:00:00 8.2 9 Nordeste 18 Nordeste 0 964.8 0.8 100
2019-12-01 21:00:00 8.6 7 Nordeste 12 Este 0 964.3 0.5 100
2019-12-01 20:00:00 8.5 0 Calma 5 Sudoeste 0 964.2 0.6 100
2019-12-01 19:00:00 8.9 3 Noroeste 9 Norte 0.4 964 0.7 99
2019-12-01 18:00:00 9.4 2 Norte 10 Norte 1.2 963.8 0.9 96
2019-12-01 17:00:00 9.8 6 Norte 17 Sur 0.8 963.6 0.2 94
2019-12-01 16:00:00 9.2 14 Sudoeste 38 Oeste 4.2 963.3 -1 91
2019-12-01 15:00:00 12.8 11 Sudoeste 26 Sudoeste 0 962.9 -2.4 77
2019-12-01 14:00:00 12.5 12 Sudoeste 29 Sudoeste 0 963.4 -2 80
2019-12-01 13:00:00 12 18 Sudoeste 28 Sudoeste 0 964.3 -1.2 84
2019-12-01 12:00:00 11.4 17 Sudoeste 32 Sudoeste 0 965.3 0 92
2019-12-01 11:00:00 10.7 12 Sudoeste 28 Sudoeste 0.6 965.4 -0.1 95
2019-12-01 10:00:00 10.1 19 Sudoeste 31 Sudoeste 1.6 965.5 -0.5 97
2019-12-01 09:00:00 10.4 6 Nordeste 39 Sur 0 965.3 -1.2 95
2019-12-01 08:00:00 10.2 10 Sur 40 Sur 0 965.5 -1.9 96
2019-12-01 07:00:00 10.1 17 Sur 31 Sudoeste 0.6 966 -2.2 97
2019-12-01 06:00:00 10 14 Sudoeste 28 Oeste 0.8 966.5 -2.3 97
2019-12-01 05:00:00 9.7 13 Sur 35 Sudoeste 0 967.4 -2 96
2019-12-01 04:00:00 9.6 12 Sur 32 Sur 0 968.2 -2.1 95
2019-12-01 03:00:00 9.2 19 Sudoeste 39 Sur 0 968.8 -1.9 98
2019-12-01 02:00:00 9.4 12 Sur 25 Sur 0 969.4 -1.4 91
2019-12-01 01:00:00 9.4 14 Sudoeste 27 Sudoeste 0 970.3 -0.8 91
2019-12-01 00:00:00 9.7 17 Sudoeste 27 Sudoeste 0 970.7 -0.5 93
2019-11-30 23:00:00 10.3 19 Sudoeste 30 Oeste 0 970.8 -0.2 94
2019-11-30 22:00:00 10.8 17 Sudoeste 33 Oeste 0 971.1 -0.3 95
2019-11-30 21:00:00 11.5 17 Oeste 30 Oeste 0 971.2 0.4 94
2019-11-30 20:00:00 11.7 18 Sudoeste 27 Sudoeste 0.2 971 -0.1 95
2019-11-30 19:00:00 11.9 14 Oeste 48 Oeste 1.6 971.4 -0.2 98
2019-11-30 18:00:00 13.7 14 Oeste 40 Oeste 0.2 970.8 -1.2 97
2019-11-30 17:00:00 13.8 8 Sur 30 Sur 1 971.1 -1.8 96
2019-11-30 16:00:00 13.9 15 Sur 32 Sudoeste 0.8 971.6 -2.3 94
2019-11-30 15:00:00 14.2 9 Sur 39 Sur 0 972 -2.7 91
2019-11-30 14:00:00 15.1 15 Sur 40 Sur 0 972.9 -2.1 81
2019-11-30 13:00:00 14.7 23 Sur 46 Sudoeste 0 973.9 -1 82
2019-11-30 12:00:00 14.5 17 Sur 40 Sur 0 974.7 -0.2 82
2019-11-30 11:00:00 14.5 15 Sur 33 Sur 0 975 0.1 84
2019-11-30 10:00:00 13.8 16 Sur 31 Sur 0 974.9 0.1 83
2019-11-30 09:00:00 12.8 12 Sur 21 Sudoeste 0 974.9 -0.2 92
2019-11-30 08:00:00 12.8 13 Sudoeste 30 Sudoeste 0 974.9 -0.5 92
2019-11-30 07:00:00 12.6 25 Sudoeste 34 Sudoeste 0 974.8 -1 95
2019-11-30 06:00:00 12.4 15 Sur 24 Sur 0 975.1 -0.2 97
2019-11-30 05:00:00 12.8 13 Sudoeste 27 Sudoeste 0 975.4 -0.1 96
2019-11-30 04:00:00 13 13 Sudoeste 28 Sudoeste 0 975.8 -0.1 97
2019-11-30 03:00:00 13.2 24 Sudoeste 33 Sudoeste 0 975.3 -1 97
2019-11-30 02:00:00 13.9 22 Sudoeste 32 Sudoeste 0 975.5 -0.7 93
2019-11-30 01:00:00 14.4 18 Sudoeste 27 Sudoeste 0 975.9 -0.2 91
2019-11-30 00:00:00 14.5 17 Sudoeste 27 Sudoeste 0 976.3 0.6 92
2019-11-29 23:00:00 14.6 18 Sudoeste 29 Sudoeste 0 976.2 0.9 90
2019-11-29 22:00:00 14.6 18 Sudoeste 42 Sudoeste 0 976.1 0.7 91
2019-11-29 21:00:00 14.6 23 Sudoeste 35 Sudoeste 0 975.7 0.3 88
2019-11-29 20:00:00 14.5 19 Sur 34 Sur 0 975.3 0 90
2019-11-29 19:00:00 14.8 24 Sudoeste 35 Sur 0 975.4 0.3 90
2019-11-29 18:00:00 15.1 13 Sudoeste 23 Sur 0 975.4 0 88
2019-11-29 17:00:00 15.6 16 Sudoeste 26 Sudoeste 0 975.3 -0.4 87
2019-11-29 16:00:00 15.7 14 Sudoeste 25 Sur 0 975.1 -0.8 85
2019-11-29 15:00:00 15.8 10 Sudoeste 28 Sur 0 975.4 -1 84
2019-11-29 14:00:00 16.1 12 Sur 27 Sudoeste 0 975.7 -0.4 83
2019-11-29 13:00:00 15.4 17 Sudoeste 33 Sudoeste 0 975.9 0.3 86
2019-11-29 12:00:00 15.4 17 Sudoeste 31 Sur 0 976.4 1.3 86
2019-11-29 11:00:00 14.6 18 Sudoeste 30 Sur 0 976.1 1.5 91
2019-11-29 10:00:00 13.9 13 Sudoeste 29 Oeste 0 975.6 1.4 93
2019-11-29 09:00:00 13.5 15 Sur 29 Sur 0 975.1 1.1 95
2019-11-29 08:00:00 13.4 15 Sur 36 Sur 0 974.6 1.1 95
2019-11-29 07:00:00 13.5 13 Sudoeste 36 Sur 0 974.2 0.8 94
2019-11-29 06:00:00 13.4 14 Sudoeste 36 Sur 0 974 0.8 94
2019-11-29 05:00:00 13.2 14 Sudoeste 37 Sur 0 973.5 0.3 96
2019-11-29 04:00:00 13.3 21 Sur 39 Sudoeste 0 973.4 0.1 95
2019-11-29 03:00:00 13.3 17 Sur 37 Sur 0 973.2 0.1 94
2019-11-29 02:00:00 13.5 12 Sudoeste 29 Oeste 0 973.2 0.1 92
2019-11-29 01:00:00 13.5 13 Sudoeste 33 Sudoeste 0 973.3 0.4 93
2019-11-29 00:00:00 13.5 11 Sur 28 Sur 0 973.1 0.4 93
2019-11-28 23:00:00 13.6 9 Sur 34 Sur 0 973.1 0.8 92
2019-11-28 22:00:00 13.7 13 Sur 25 Sur 0 972.9 1 92
2019-11-28 21:00:00 13.7 12 Sudoeste 25 Sur 0 972.7 1.1 92
2019-11-28 20:00:00 14.1 5 Sudeste 27 Sudoeste 0 972.3 0.7 90
2019-11-28 19:00:00 14.1 6 Este 32 Sur 0 971.9 0.4 89
2019-11-28 18:00:00 14.3 14 Sur 30 Sudoeste 0 971.6 -0.1 88
2019-11-28 17:00:00 -- 12 Sudoeste 28 Oeste 0 971.6 -0.7 --
2019-11-28 16:00:00 14.8 5 Sur 31 Sur 0 971.5 -1 83
2019-11-28 15:00:00 14.9 13 Oeste 37 Sudoeste 0 971.7 -1.5 79
2019-11-28 14:00:00 14.5 11 Oeste 37 Oeste 0 972.3 -0.6 81
2019-11-28 13:00:00 13.9 19 Sur 36 Sur 0 972.5 -0.2 84
2019-11-28 12:00:00 13.4 17 Sur 34 Sur 0.2 973.2 0.9 89
2019-11-28 11:00:00 12.5 23 Sur 34 Sur 0 972.9 0.9 92
2019-11-28 10:00:00 11.3 22 Sur 32 Sur 0 972.7 1.1 95
2019-11-28 09:00:00 10.9 21 Sur 32 Sur 0 972.3 1 96
2019-11-28 08:00:00 11 20 Sur 28 Sur 0 972 0.8 95
2019-11-28 07:00:00 10.8 17 Sur 24 Sur 0 971.6 0.6 96
2019-11-28 06:00:00 10.4 13 Sur 26 Sudoeste 0 971.3 0.4 97
2019-11-28 05:00:00 10.1 14 Sudoeste 27 Sur 0 971.2 0.3 98
2019-11-28 04:00:00 10.3 16 Sur 27 Sudoeste 0 971 -0.2 96
2019-11-28 03:00:00 10.9 17 Sudoeste 26 Sudoeste 0 970.9 -0.3 92
2019-11-28 02:00:00 11.2 17 Sudoeste 27 Sudoeste 0 970.9 -0.4 88
2019-11-28 01:00:00 11.3 8 Sudoeste 20 Sudoeste 0 971.2 0.7 86
2019-11-28 00:00:00 10.7 12 Sudoeste 19 Sudoeste 0 971.2 1.1 89
2019-11-27 23:00:00 11.5 13 Sudoeste 23 Sudoeste 0 971.3 1.3 87
2019-11-27 22:00:00 12 14 Sudoeste 24 Sudoeste 0 970.5 0.8 85
2019-11-27 21:00:00 12.4 13 Sudoeste 25 Sudoeste 0 970.1 1.1 83
2019-11-27 20:00:00 12.8 10 Sudoeste 22 Sudoeste 0 970 1.2 78
2019-11-27 19:00:00 13.1 12 Sudoeste 26 Oeste 0 969.7 1.1 74
2019-11-27 18:00:00 13.8 14 Sudoeste 23 Oeste 0 969 0.3 67
2019-11-27 17:00:00 14.4 10 Oeste 26 Sudoeste 0 968.8 -0.3 64
2019-11-27 16:00:00 14.7 18 Sudoeste 35 Sudoeste 0 968.6 -0.7 65
2019-11-27 15:00:00 15 17 Sudoeste 35 Sudoeste 0 968.7 -1.5 65
2019-11-27 14:00:00 14.2 17 Sudoeste 33 Sudoeste 0 969.1 -1 70
2019-11-27 06:00:00 10.6 21 Sudoeste 31 Oeste 0 966.8 0 90
2019-11-27 05:00:00 11.1 16 Oeste 29 Sudoeste 0 966.8 0 92
2019-11-27 04:00:00 11.5 16 Oeste 30 Oeste 0 966.9 0.1 95
2019-11-27 03:00:00 11.9 16 Oeste 31 Oeste 0.2 966.8 0.3 95
2019-11-27 02:00:00 12 20 Oeste 35 Oeste 1 966.8 0.5 96
2019-11-27 01:00:00 12.7 14 Oeste 40 Sudoeste 1.6 966.8 0.5 98
2019-11-27 00:00:00 13.6 9 Sudoeste 30 Sur 0 966.5 0.2 93
2019-11-26 23:00:00 13.6 10 Sudoeste 30 Oeste 0 966.3 0.5 93
2019-11-26 22:00:00 13.9 8 Sur 36 Sur 0 966.3 0.6 92
2019-11-26 21:00:00 14.3 17 Sudoeste 41 Sudoeste 0 966.3 1.2 92
2019-11-26 20:00:00 14.5 14 Sudoeste 50 Oeste 0 965.8 0.6 92
2019-11-26 19:00:00 14.7 14 Sudoeste 39 Oeste 0.8 965.7 0.1 96
2019-11-26 18:00:00 14.8 8 Sur 38 Sur 0 965.1 -0.8 93
2019-11-26 17:00:00 14.9 20 Sur 46 Sur 0.4 965.2 -1.4 94
2019-11-26 16:00:00 14.9 22 Sur 66 Sur 4 965.6 -1.9 94
2019-11-26 15:00:00 15.1 17 Sur 53 Sur 1.2 965.9 -2.9 92
2019-11-26 14:00:00 15.8 28 Sur 51 Sur 0 966.6 -2.8 86
2019-11-26 13:00:00 15.5 26 Sur 40 Sudoeste 0 967.5 -1.7 89
2019-11-26 12:00:00 15.1 15 Sur 37 Sur 0.4 968.8 -0.4 91
2019-11-26 11:00:00 15 20 Sur 36 Sur 0 969.4 0.4 90
2019-11-26 10:00:00 14.1 17 Sur 40 Sur 0 969.2 0.2 96
2019-11-26 09:00:00 13.4 14 Sudeste 34 Sur 0 969.2 -0.1 99
2019-11-26 08:00:00 13.3 12 Sur 34 Sur 0 969 -0.7 98
2019-11-26 07:00:00 13.1 19 Sur 34 Sur 0 969 -1.3 99
2019-11-26 06:00:00 13.1 26 Sur 38 Sur 0 969.3 -1.3 97
2019-11-26 05:00:00 13.1 20 Sur 30 Sur 0 969.7 -1.1 95
2019-11-26 04:00:00 13.3 15 Sur 21 Sur 0 970.3 -0.9 92
2019-11-26 03:00:00 13.3 11 Sudoeste 28 Sudoeste 0 970.6 -1 92
2019-11-26 02:00:00 13 15 Sudoeste 25 Sudoeste 0 970.8 -0.7 91
2019-11-26 01:00:00 13 9 Sur 18 Sudoeste 0 971.2 -0.4 90
2019-11-26 00:00:00 13.2 10 Sudoeste 24 Oeste 0 971.6 0 91
2019-11-25 23:00:00 14.1 10 Sudoeste 19 Sur 0 971.5 0.1 86
2019-11-25 22:00:00 15.1 10 Sudoeste 18 Oeste 0 971.6 0.5 78
2019-11-25 21:00:00 15 10 Sudoeste 17 Oeste 0 971.6 1 80
2019-11-25 20:00:00 15.1 9 Oeste 18 Oeste 0 971.4 0.9 79
2019-11-25 19:00:00 15.4 12 Oeste 17 Oeste 0 971.1 1.1 77
2019-11-25 18:00:00 15.6 6 Oeste 16 Oeste 0 970.6 0.3 79
2019-11-25 17:00:00 16.3 10 Oeste 24 Oeste 0 970.5 0.1 76
2019-11-25 16:00:00 16.6 13 Oeste 29 Sudoeste 0 970 -0.6 75
2019-11-25 15:00:00 16.3 13 Oeste 24 Oeste 0 970.3 -0.6 81
2019-11-25 14:00:00 16.1 12 Oeste 30 Oeste 0 970.4 -0.3 80
2019-11-25 13:00:00 16 14 Oeste 31 Oeste 0 970.6 0.4 80
2019-11-25 12:00:00 15.5 16 Oeste 32 Oeste 0 970.9 1 86
2019-11-25 11:00:00 14.6 17 Sudoeste 26 Sudoeste 0 970.7 1.6 92
2019-11-25 10:00:00 14.4 13 Sudoeste 19 Sudoeste 0.4 970.2 1.4 97
2019-11-25 09:00:00 13.8 8 Oeste 24 Oeste 0.6 969.9 1.2 99
2019-11-25 08:00:00 13.7 18 Sudoeste 35 Sudoeste 0.4 969.1 0.4 98
2019-11-25 07:00:00 13.3 16 Sudoeste 30 Sudoeste 0.4 968.8 0.2 98
2019-11-25 06:00:00 13.1 7 Sudoeste 29 Sudoeste 0.4 968.7 0.3 98
2019-11-25 05:00:00 12.9 12 Oeste 42 Sudoeste 1 968.7 -0.4 98
2019-11-25 04:00:00 12.7 15 Sur 48 Sudoeste 1.2 968.6 -1.2 97
2019-11-25 03:00:00 12.4 24 Sur 59 Sur 0 968.4 -1.6 98
2019-11-25 02:00:00 12.1 21 Sur 59 Sur 0 969.1 -0.9 98
2019-11-25 01:00:00 11.9 22 Sur 50 Sudoeste 0.4 969.8 -0.5 97
2019-11-25 00:00:00 11.7 21 Sur 60 Sur 0 970 -0.4 96
2019-11-24 23:00:00 11.9 26 Sur 50 Sur 0 970 -0.5 91
2019-11-24 22:00:00 12.4 22 Sur 41 Sur 0 970.3 -0.6 87
2019-11-24 21:00:00 12.2 17 Sudoeste 34 Sur 0 970.4 0 84
2019-11-24 20:00:00 12.2 20 Sudoeste 32 Sudoeste 0 970.5 0 84
2019-11-24 19:00:00 12.3 8 Sudoeste 26 Sudoeste 0 970.9 0.2 82
2019-11-24 18:00:00 12.6 12 Sur 29 Sur 0 970.4 -0.4 79
2019-11-24 17:00:00 12.9 7 Sudoeste 28 Sudoeste 0 970.5 -0.4 75
2019-11-24 16:00:00 13 13 Sudoeste 27 Sudoeste 0 970.7 -0.9 75
2019-11-24 15:00:00 12.2 15 Sudoeste 22 Sudoeste 0 970.8 -1.2 79
2019-11-24 14:00:00 12.7 13 Oeste 23 Oeste 0 970.9 -1.2 74
2019-11-24 13:00:00 12.2 13 Oeste 24 Oeste 0 971.6 0.2 77
2019-11-24 12:00:00 11.5 10 Oeste 21 Oeste 0 972 1.1 82
2019-11-24 11:00:00 10.4 15 Sudoeste 24 Sudoeste 0 972.1 1.5 84
2019-11-24 10:00:00 9 15 Sudoeste 22 Sudoeste 0 971.4 0.9 88
2019-11-24 09:00:00 7.8 15 Sudoeste 24 Oeste 0 970.9 1 95
2019-11-24 08:00:00 7.4 18 Sudoeste 27 Sudoeste 0 970.6 1.1 97
2019-11-24 07:00:00 7.2 17 Sudoeste 27 Oeste 0 970.5 1.2 96
2019-11-24 06:00:00 7.1 18 Sudoeste 28 Oeste 0 969.9 0.8 94
2019-11-24 05:00:00 7.5 18 Sudoeste 31 Oeste 0 969.5 0.5 90
2019-11-24 04:00:00 7.7 14 Oeste 23 Oeste 0 969.3 -0.1 86
2019-11-24 03:00:00 8.2 15 Oeste 27 Oeste 0 969.1 0.3 83
2019-11-24 02:00:00 8.6 13 Oeste 31 Oeste 0 969 0.4 81
2019-11-24 01:00:00 8.7 16 Oeste 32 Oeste 0 969.4 1 80
2019-11-24 00:00:00 8.6 21 Oeste 36 Oeste 0 968.8 0.7 82
2019-11-23 23:00:00 8.7 19 Oeste 33 Oeste 0 968.6 1.4 81
2019-11-23 22:00:00 9 15 Oeste 28 Oeste 0 968.4 2.1 78
2019-11-23 21:00:00 9.6 15 Oeste 32 Oeste 0 968.1 2.6 74
2019-11-23 20:00:00 9.9 16 Oeste 30 Oeste 0 967.2 2.7 71
2019-11-23 19:00:00 10.7 14 Oeste 25 Oeste 0 966.3 2.3 68
2019-11-23 18:00:00 11.7 10 Oeste 28 Oeste 0 965.5 2.1 62
2019-11-23 17:00:00 13.3 21 Noroeste 33 Noroeste 0 964.5 1.1 54
2019-11-23 16:00:00 13.5 18 Noroeste 33 Oeste 0 964 0.5 57
2019-11-23 15:00:00 13.7 17 Oeste 33 Oeste 0 963.4 0.4 56
2019-11-23 14:00:00 13.3 13 Oeste 30 Oeste 0 963.4 1.2 59
2019-11-23 13:00:00 12.5 17 Oeste 30 Noroeste 0 963.5 2.8 61
2019-11-23 12:00:00 12.2 19 Oeste 33 Oeste 0 963 3.5 64
2019-11-23 11:00:00 10.8 18 Oeste 30 Oeste 0 962.2 4 70
2019-11-23 10:00:00 9.3 19 Oeste 36 Oeste 0 960.7 3.8 78
2019-11-23 09:00:00 8.1 19 Oeste 36 Noroeste 0 959.5 3.3 83
2019-11-23 08:00:00 8.2 19 Oeste 41 Oeste 0 958.2 2.8 82
2019-11-23 07:00:00 8.2 21 Oeste 39 Oeste 0 956.9 1.9 81
2019-11-23 06:00:00 8.2 18 Oeste 46 Oeste 0 956.2 1.9 89
2019-11-23 05:00:00 8.5 23 Oeste 44 Oeste 0 955.4 1.9 89
2019-11-23 04:00:00 8.7 19 Oeste 42 Oeste 0 955 1.9 89
2019-11-23 03:00:00 9.2 30 Oeste 50 Oeste 0 954.3 1.8 83
2019-11-23 02:00:00 10 21 Oeste 52 Oeste 0 953.5 1.3 88
2019-11-23 01:00:00 10.6 27 Oeste 45 Oeste 0 953.1 1.3 81
2019-11-23 00:00:00 10.6 21 Oeste 46 Sudoeste 0.2 952.5 1.1 89
2019-11-22 23:00:00 11.7 23 Oeste 45 Oeste 0 952.2 1 81
2019-11-22 22:00:00 11.6 15 Sudoeste 41 Oeste 0 951.8 1.1 81
2019-11-22 21:00:00 11.7 29 Sudoeste 53 Sudoeste 0 951.4 1.8 79
2019-11-22 20:00:00 12 23 Oeste 42 Oeste 0 951.2 2.2 80
2019-11-22 19:00:00 13 17 Oeste 54 Noroeste 0 950.7 2 74
2019-11-22 18:00:00 14.1 22 Oeste 46 Sudoeste 0 949.6 1.2 67
2019-11-22 17:00:00 15.4 21 Oeste 48 Oeste 0 949 0.4 61
2019-11-22 16:00:00 15.3 22 Oeste 49 Oeste 0 948.7 -0.1 66
2019-11-22 15:00:00 15.3 31 Oeste 59 Oeste 0 948.4 -2.2 69
2019-11-22 14:00:00 15.4 21 Sudoeste 47 Sudoeste 5.2 948.6 -3.2 90
2019-11-22 13:00:00 14 22 Sur 55 Sur 1 948.8 -3.9 95
2019-11-22 12:00:00 13.5 22 Sur 58 Sur 2 950.6 -2.9 97
2019-11-22 11:00:00 12.2 29 Sur 67 Sur 7 951.8 -3 98
2019-11-22 10:00:00 11.5 32 Sur 51 Sur 3.4 952.7 -2.9 98
2019-11-22 09:00:00 10.8 24 Sur 45 Sur 4.6 953.5 -3.5 98
2019-11-22 08:00:00 11 26 Sur 49 Sur 0.6 954.8 -2.7 95
2019-11-22 07:00:00 10.9 24 Sur 48 Sur 1.8 955.6 -3.1 96
2019-11-22 06:00:00 11.1 28 Sur 50 Sur 0.8 957 -2.8 95
2019-11-22 05:00:00 10.8 22 Sur 38 Sur 0.6 957.5 -2.8 96
2019-11-22 04:00:00 10.9 18 Sur 35 Sur 0 958.7 -1.7 95
2019-11-22 03:00:00 11 9 Sudeste 28 Sur 0 959.8 -1.1 94
2019-11-22 02:00:00 11 12 Sur 29 Sur 0 960.3 -1.1 96
2019-11-22 01:00:00 11 17 Sur 32 Sur 0 960.4 -1.2 96
2019-11-22 00:00:00 11.1 17 Sur 29 Sur 0.2 960.9 -0.9 96
2019-11-21 23:00:00 11.1 16 Sur 29 Sur 0 961.4 -0.3 95
2019-11-21 22:00:00 11 21 Sur 28 Sur 0 961.6 -0.2 95
2019-11-21 21:00:00 10.9 17 Sur 23 Sur 0 961.8 0.5 95
2019-11-21 20:00:00 10.6 14 Sur 19 Sur 0 961.7 0.4 94
2019-11-21 19:00:00 11.1 10 Sur 15 Sur 0 961.8 0.5 90
2019-11-21 18:00:00 11.1 5 Sudoeste 13 Sudoeste 0 961.3 -0.3 93
2019-11-21 17:00:00 11.7 5 Sur 22 Noroeste 0.8 961.3 -0.6 89
2019-11-21 16:00:00 14 8 Sudoeste 18 Oeste 0 961.3 -1.2 73
2019-11-21 15:00:00 13.4 9 Oeste 23 Sudoeste 0 961.6 -1.5 79
2019-11-21 14:00:00 12.8 8 Sudoeste 17 Sudoeste 0 961.9 -1 83
2019-11-21 13:00:00 12 9 Sudoeste 19 Oeste 0 962.5 0 90
2019-11-21 12:00:00 11.4 10 Sudoeste 27 Sur 0 963.1 0.7 92
2019-11-21 11:00:00 10.6 15 Sudoeste 27 Sur 0 962.9 0.9 93
2019-11-21 10:00:00 10.1 15 Sur 25 Sudoeste 0.2 962.5 0.7 95
2019-11-21 09:00:00 10.2 14 Sudoeste 30 Sur 0.4 962.4 0.5 93
2019-11-21 08:00:00 -- -- -- -- -- -- -- -- --
2019-11-21 07:00:00 -- -- -- -- -- -- -- -- --
2019-11-21 06:00:00 -- -- -- -- -- -- -- -- --
2019-11-21 05:00:00 -- -- -- -- -- -- -- -- --
2019-11-21 04:00:00 -- -- -- -- -- -- -- -- --
2019-11-21 03:00:00 -- -- -- -- -- -- -- -- --
2019-11-21 02:00:00 -- -- -- -- -- -- -- -- --
2019-11-21 01:00:00 -- -- -- -- -- -- -- -- --
2019-11-21 00:00:00 -- -- -- -- -- -- -- -- --
2019-11-20 23:00:00 -- -- -- -- -- -- -- -- --
2019-11-20 22:00:00 -- -- -- -- -- -- -- -- --
2019-11-20 21:00:00 -- -- -- -- -- -- -- -- --
2019-11-20 20:00:00 -- -- -- -- -- -- -- -- --
2019-11-20 19:00:00 9.4 10 Sudoeste 22 Sudoeste 0 962.6 0.5 95
2019-11-20 18:00:00 9.4 12 Sudoeste 19 Sudoeste 0 962.2 -0.1 95
2019-11-20 17:00:00 9.3 6 Sudoeste 27 Sur 0 962.4 -0.7 94
2019-11-20 16:00:00 8.9 19 Sur 31 Sur 1 962.1 -1.9 96
2019-11-20 15:00:00 8.7 17 Sudeste 26 Sudeste 0 962.3 -2.4 96
2019-11-20 14:00:00 8.5 13 Sur 28 Sudeste 0.2 963.1 -1.9 95
2019-11-20 13:00:00 8.1 12 Sur 30 Sur 1 964 -0.4 96
2019-11-20 12:00:00 7.8 21 Sur 33 Sur 0.6 964.7 0 94
2019-11-20 11:00:00 7.9 11 Sudoeste 39 Sur 0.4 965 0 95
2019-11-20 10:00:00 7.4 22 Sudeste 34 Sur 0.6 964.4 -0.9 95
2019-11-20 09:00:00 7.4 23 Sur 32 Sur 1.2 964.7 -0.6 95
2019-11-20 08:00:00 7.2 9 Este 13 Sudeste 4 965 -0.7 98
2019-11-20 07:00:00 7.4 3 Sudeste 18 Sudeste 2 965.3 -0.8 95
2019-11-20 06:00:00 7.5 11 Sur 23 Sur 0.2 965.3 -1.2 92
2019-11-20 05:00:00 8.8 13 Sur 21 Sur 0 965.7 -1.3 78
2019-11-20 04:00:00 9 16 Sur 26 Sur 0 966.1 -1.8 75
2019-11-20 03:00:00 8.9 19 Sur 27 Sur 0 966.5 -2 74
2019-11-20 02:00:00 8.8 19 Sur 26 Sur 0 967 -1.8 78
2019-11-20 01:00:00 8.4 10 Sur 19 Sur 0 967.9 -1.3 78
2019-11-20 00:00:00 8 11 Sur 18 Sur 0 968.5 -0.9 84
2019-11-19 23:00:00 8.3 4 Sudeste 15 Sur 0 968.8 -0.6 82
2019-11-19 22:00:00 8.8 4 Sudeste 8 Sur 0 969.2 -0.3 81
2019-11-19 21:00:00 9.1 8 Sudoeste 19 Sudoeste 0 969.4 0.2 79
2019-11-19 20:00:00 9.5 10 Sudoeste 17 Sudoeste 0 969.4 -0.2 75
2019-11-19 19:00:00 9.5 8 Sudoeste 10 Sudoeste 0 969.5 -0.3 75
2019-11-19 18:00:00 10.4 5 Sur 8 Sur 0 969.2 -1 70
2019-11-19 17:00:00 11.2 5 Sur 9 Sudoeste 0 969.6 -1.3 65
2019-11-19 16:00:00 11.6 6 Sudoeste 10 Sur 0 969.8 -1.9 62
2019-11-19 15:00:00 11.8 6 Sur 15 Sudoeste 0 970.2 -2.3 57
2019-11-19 14:00:00 11.1 7 Sudoeste 11 Sur 0 970.9 -1.8 64
2019-11-19 13:00:00 8.9 2 Nordeste 6 Nordeste 0 971.7 -0.9 80
2019-11-19 12:00:00 7.6 2 Este 6 Este 0 972.5 0.2 83
2019-11-19 11:00:00 5.9 0 Calma 6 Este 0 972.7 0.9 89
2019-11-19 10:00:00 4.5 0 Calma 5 Noroeste 0 972.6 0.9 92
2019-11-19 09:00:00 3.1 2 Oeste 5 Sudoeste 0 972.3 0.6 95
2019-11-19 08:00:00 2.8 3 Sur 5 Sudoeste 0 971.8 0.2 94
2019-11-19 07:00:00 3.4 2 Sur 4 Nordeste 0 971.7 -0.2 94
2019-11-19 06:00:00 3.3 2 Sudeste 7 Sudoeste 0 971.7 -0.1 92
2019-11-19 05:00:00 3.4 4 Sudoeste 8 Sudoeste 0 971.6 -0.1 91
2019-11-19 04:00:00 3.9 6 Sudoeste 12 Sudoeste 0 971.9 -0.3 88
2019-11-19 03:00:00 4.6 5 Sudoeste 12 Sur 0 971.8 -0.4 84
2019-11-19 02:00:00 4.8 4 Sudoeste 10 Sudoeste 0 971.7 -0.8 85
2019-11-19 01:00:00 6.1 4 Noroeste 12 Sudoeste 0 972.2 -0.1 77
2019-11-19 00:00:00 6.2 5 Oeste 10 Oeste 0 972.2 0.2 76
2019-11-18 23:00:00 7 5 Oeste 11 Sudoeste 0 972.5 1.1 73
2019-11-18 22:00:00 7.5 6 Oeste 10 Oeste 0 972.3 1.1 72
2019-11-18 21:00:00 7.7 6 Oeste 10 Oeste 0 972 1.1 74
2019-11-18 20:00:00 8.5 7 Oeste 12 Noroeste 0 971.4 0.9 69
2019-11-18 19:00:00 9.5 3 Oeste 12 Oeste 0 971.2 1 65
2019-11-18 18:00:00 11.1 6 Oeste 21 Noroeste 0 970.9 0.4 62
2019-11-18 17:00:00 13.2 10 Noroeste 24 Norte 0 970.5 0.1 51
2019-11-18 16:00:00 13.3 15 Noroeste 27 Noroeste 0 970.2 -0.7 50
2019-11-18 15:00:00 13.1 17 Noroeste 28 Noroeste 0 970.5 -0.6 53
2019-11-18 14:00:00 12.5 13 Norte 26 Noroeste 0 970.4 -0.5 56
2019-11-18 13:00:00 11.6 14 Norte 30 Norte 0 970.9 0.5 62
2019-11-18 12:00:00 10.6 17 Norte 28 Norte 0 971.1 1.7 64
2019-11-18 11:00:00 9.1 12 Noroeste 26 Noroeste 0 970.9 2 75
2019-11-18 10:00:00 7.8 6 Noroeste 18 Noroeste 0 970.4 1.9 80
2019-11-18 09:00:00 6 12 Noroeste 20 Noroeste 0 969.4 1.3 87
2019-11-18 08:00:00 5.2 6 Oeste 21 Noroeste 0 968.9 1.4 89
2019-11-18 07:00:00 6.1 12 Noroeste 21 Noroeste 0 968.5 1.5 85
2019-11-18 06:00:00 5.9 9 Noroeste 24 Noroeste 0 968.1 1.3 85
2019-11-18 05:00:00 6.5 14 Noroeste 28 Noroeste 0 967.5 0.5 83
2019-11-18 04:00:00 6.7 14 Oeste 27 Oeste 0 967 0.2 81
2019-11-18 03:00:00 7.2 14 Noroeste 28 Noroeste 0 966.8 -0.2 80
2019-11-18 02:00:00 6.8 13 Noroeste 26 Noroeste 0 967 0 86
2019-11-18 01:00:00 7.6 15 Noroeste 28 Noroeste 0 966.8 0.3 84
2019-11-18 00:00:00 8.5 13 Noroeste 29 Noroeste 0 967 0.7 85
2019-11-17 23:00:00 9.8 17 Noroeste 29 Noroeste 0 967 1.1 89
2019-11-17 22:00:00 10.4 12 Noroeste 23 Norte 0 966.5 0.6 100
2019-11-17 21:00:00 10.6 19 Noroeste 36 Oeste 1 966.3 -0.2 98
2019-11-17 20:00:00 12.4 15 Oeste 34 Oeste 3.4 965.9 -1.2 98
2019-11-17 19:00:00 12.5 8 Oeste 27 Sudoeste 6.8 965.9 -1.6 98
2019-11-17 18:00:00 12.6 13 Sudoeste 24 Oeste 0.8 966.5 -1.9 96
2019-11-17 17:00:00 12.5 9 Oeste 21 Sudoeste 1.4 967.1 -1.8 96
2019-11-17 16:00:00 12.6 13 Sudoeste 19 Oeste 0 967.5 -2.5 93
2019-11-17 15:00:00 11.6 8 Oeste 20 Oeste 0 968.4 -2.3 95
2019-11-17 14:00:00 11 14 Sudoeste 26 Oeste 0 968.9 -1.8 95
2019-11-17 13:00:00 9.9 12 Sudoeste 22 Sudoeste 0 970 -0.6 97
2019-11-17 12:00:00 9.3 6 Sudoeste 16 Sudoeste 0 970.7 0.3 96
2019-11-17 11:00:00 8.5 7 Sur 24 Sur 0 970.7 0.3 97
2019-11-17 10:00:00 7.6 10 Sur 23 Sur 0.8 970.6 0.1 97
2019-11-17 09:00:00 7.1 11 Sur 18 Sur 1.2 970.4 -0.4 98
2019-11-17 08:00:00 6.8 7 Sudeste 18 Sur 1.2 970.4 -0.8 97
2019-11-17 07:00:00 6.7 9 Sur 21 Sur 0 970.5 -0.8 96
2019-11-17 06:00:00 6.4 11 Sudoeste 22 Sudoeste 0 970.8 -0.7 93
2019-11-17 05:00:00 6.7 12 Sudoeste 22 Sudoeste 0 971.2 -0.7 87
2019-11-17 04:00:00 7.4 12 Sudoeste 22 Sudoeste 0 971.3 -0.8 79
2019-11-17 03:00:00 6.7 15 Sudoeste 23 Oeste 0 971.5 -0.7 77
2019-11-17 02:00:00 6.8 17 Sudoeste 32 Oeste 0 971.9 -0.6 74
2019-11-17 01:00:00 7 15 Oeste 23 Oeste 0 972.1 0 71
2019-11-17 00:00:00 7.1 13 Oeste 26 Oeste 0 972.2 0.2 69
2019-11-16 23:00:00 7.5 11 Oeste 21 Oeste 0 972.5 0.7 66
2019-11-16 22:00:00 8.4 9 Oeste 20 Sudoeste 0 972.1 0.5 60
2019-11-16 21:00:00 9.3 12 Oeste 20 Oeste 0 972 0.7 56
2019-11-16 20:00:00 9.3 6 Oeste 21 Noroeste 0 971.8 0.7 57
2019-11-16 19:00:00 8.7 8 Oeste 16 Oeste 0 971.6 0.6 54
2019-11-16 18:00:00 9.8 6 Oeste 21 Noroeste 0 971.3 0.7 52
2019-11-16 17:00:00 11.4 14 Oeste 27 Oeste 0 971.1 0.3 46
2019-11-16 16:00:00 11.7 17 Noroeste 27 Oeste 0 971 -0.2 45
2019-11-16 15:00:00 12.3 16 Noroeste 26 Noroeste 0 970.6 -0.9 41
2019-11-16 14:00:00 11.4 11 Noroeste 21 Noroeste 0 970.8 -0.4 49
2019-11-16 13:00:00 10.3 12 Noroeste 22 Norte 0 971.2 0.4 52
2019-11-16 12:00:00 9 12 Noroeste 21 Noroeste 0 971.5 1.8 58
2019-11-16 11:00:00 7.2 12 Noroeste 23 Noroeste 0 971.2 2.5 66
2019-11-16 10:00:00 5.6 12 Noroeste 18 Noroeste 0 970.8 3 74
2019-11-16 09:00:00 3.2 5 Oeste 11 Oeste 0 969.7 2.6 84
2019-11-16 08:00:00 3.4 7 Sudoeste 18 Noroeste 0 968.7 2 82
2019-11-16 07:00:00 3.5 11 Noroeste 18 Noroeste 0 967.8 1.6 81
2019-11-16 06:00:00 3.5 8 Noroeste 19 Noroeste 0 967.1 1.2 80
2019-11-16 05:00:00 4.3 11 Noroeste 21 Noroeste 0 966.7 1.3 77
2019-11-16 04:00:00 3.9 4 Oeste 18 Noroeste 0 966.2 0.9 78
2019-11-16 03:00:00 4.5 8 Noroeste 17 Oeste 0 965.9 1.1 75
2019-11-16 02:00:00 5.1 8 Noroeste 23 Oeste 0 965.4 0.9 70
2019-11-16 01:00:00 5.5 10 Noroeste 24 Noroeste 0 965.3 1.1 68
2019-11-16 00:00:00 5.9 15 Noroeste 26 Noroeste 0 964.8 1.2 65
2019-11-15 23:00:00 5.8 8 Oeste 21 Noroeste 0 964.5 1.2 65
2019-11-15 22:00:00 6.1 10 Noroeste 22 Noroeste 0 964.2 1.3 63
2019-11-15 21:00:00 6.6 11 Noroeste 25 Noroeste 0 963.6 1.2 57
2019-11-15 20:00:00 7.5 12 Noroeste 22 Noroeste 0 963.3 1.2 52
2019-11-15 19:00:00 8.7 10 Noroeste 30 Noroeste 0 962.9 1.2 49
2019-11-15 18:00:00 9.7 17 Noroeste 34 Noroeste 0 962.4 0.6 44
2019-11-15 17:00:00 10.4 18 Noroeste 32 Noroeste 0 962.1 0 43
2019-11-15 16:00:00 11.1 20 Noroeste 35 Noroeste 0 961.7 -0.8 43
2019-11-15 15:00:00 11.4 18 Noroeste 37 Noroeste 0 961.8 -1.2 43
2019-11-15 14:00:00 10.9 19 Noroeste 37 Norte 0 962.1 -0.9 44
2019-11-15 13:00:00 10 23 Noroeste 39 Noroeste 0 962.5 -0.5 51
2019-11-15 12:00:00 8.9 24 Noroeste 45 Noroeste 0 963 0.5 56
2019-11-15 11:00:00 7.6 28 Noroeste 42 Noroeste 0 963 0.9 61
2019-11-15 10:00:00 6.2 18 Noroeste 34 Noroeste 0 963 1.2 66
2019-11-15 09:00:00 5.3 17 Noroeste 33 Oeste 0 962.5 0.8 68
2019-11-15 08:00:00 4.8 17 Oeste 34 Oeste 0 962.1 0.5 69
2019-11-15 07:00:00 4.8 17 Oeste 36 Oeste 0 961.8 0 70
2019-11-15 06:00:00 5.2 17 Oeste 37 Oeste 0 961.7 -0.2 69
2019-11-15 05:00:00 5.3 15 Oeste 29 Oeste 0 961.6 -0.4 72
2019-11-15 04:00:00 5.4 15 Oeste 32 Oeste 0 961.8 -0.4 76
2019-11-15 03:00:00 6.3 19 Oeste 37 Oeste 0 961.9 -0.3 68
2019-11-15 02:00:00 6.2 17 Oeste 33 Oeste 0 962 -0.2 73
2019-11-15 01:00:00 6.7 17 Oeste 35 Oeste 0 962.2 0.4 73
2019-11-15 00:00:00 7.3 15 Oeste 34 Oeste 0 962.2 0.8 74